Harveys Lake, Pennsylvania
Current Conditions -  °F | °C
As of 8:28 PM on Monday 22 Dec 2014 (Local Time) from KAVP Reporting Station
Light Rain Light Rain  
Wind Chill: 33°   Ceiling: 900
Heat Index: 38°   Visibility: 7mi
Dew Point: 34°   Wind: 6mph
Humidity: 86%   Direction: 360°N
Pressure: 30.16"   Gusts: NA
Location:  41.38°N, 76.02°W
Report Text: KAVP 230128Z AUTO 36005KT 7SM -RA OVC009 03/01 A3016 RMK AO2 RAB15 P0000 T00330011
Loading
Personal Weather Stations






























Interactive Weather Map New forecast layout! Learn more

10-Day Weather Forecast

Advertisements
Track Severe Weather on mobile